Current Conditions
Clear
Conditions



Pressure
29.81 (inHG) - 1009.48 (mb)
Visibility

7.0 (miles) - 11.3 (km)
   Temperature
57  °F
14°C
55  °F
Dewpoint
94  %
 Humidity
   Wind Speed
0  mph
0  kts
0  km/h
0  m/s
   Wind Direction
Calm
Due North
   Airport Data
KSBA
Location Santa Barbara Municipal Airport 6 mi (9.65 km)
Metar :KSBA 201353Z 00000KT 7SM CLR 14/13 A2981 RMK AO2 SLP094 T01440128 $
Thu 20th June 05:53 am
   Raw Metar Info
Raw METAR is the most common format in the world for the transmission of observational weather data. It is highly standardized through the International Civil Aviation Organization (ICAO), which allows it to be understood throughout most of the world.
   API Info
Data Provided by
https://www.checkwx.com/weather/KSBA
   © Info
CSS/SVG/PHP scripts were developed by weather34.com for use in the weather34 template © 2015-2024

Guide Info provided by Metar-Wikipedia